createdAt,value
2022-10-05T00:01:15.434Z,1.60
2022-10-05T00:03:42.993Z,2.40
2022-10-05T00:06:10.658Z,1.30
2022-10-05T00:08:38.216Z,1.48
2022-10-05T00:11:07.344Z,1.35
2022-10-05T00:13:34.884Z,1.30
2022-10-05T00:16:09.219Z,1.30
2022-10-05T00:18:38.315Z,2.00
2022-10-05T00:21:13.617Z,1.40
2022-10-05T00:23:41.126Z,1.55
2022-10-05T00:26:12.904Z,1.70
2022-10-05T00:28:40.920Z,1.15
2022-10-05T00:31:11.670Z,1.40
2022-10-05T00:33:40.649Z,1.50
2022-10-05T00:36:08.397Z,1.17
2022-10-05T00:38:35.983Z,1.85
2022-10-05T00:41:06.372Z,1.75
2022-10-05T00:44:00.280Z,1.48
2022-10-05T00:46:30.276Z,1.60
2022-10-05T00:49:01.616Z,1.17
2022-10-05T00:51:29.778Z,1.30
2022-10-05T00:54:18.043Z,1.83
2022-10-05T00:57:01.128Z,1.58
2022-10-05T00:59:36.828Z,1.42
2022-10-05T01:02:07.861Z,1.05
2022-10-05T01:04:44.470Z,1.98
2022-10-05T01:07:15.992Z,1.90
2022-10-05T01:09:47.342Z,1.30
2022-10-05T01:12:17.508Z,1.40
2022-10-05T01:14:49.804Z,1.50
2022-10-05T01:17:20.062Z,1.55
2022-10-05T01:20:08.145Z,1.73
2022-10-05T01:22:42.420Z,1.38
2022-10-05T01:25:18.285Z,1.50
2022-10-05T01:27:53.377Z,1.35
2022-10-05T01:30:21.405Z,1.40
2022-10-05T01:32:51.789Z,1.40
2022-10-05T01:35:27.984Z,2.35
2022-10-05T01:38:00.850Z,1.55
2022-10-05T01:40:32.332Z,1.58
2022-10-05T01:43:05.700Z,1.40
2022-10-05T01:45:36.244Z,1.40
2022-10-05T01:48:08.313Z,1.45
2022-10-05T01:50:41.352Z,1.20
2022-10-05T01:53:12.381Z,1.30
2022-10-05T01:55:42.304Z,1.40
2022-10-05T01:58:17.176Z,1.40
2022-10-05T02:00:48.146Z,1.20
2022-10-05T02:03:18.451Z,1.42
2022-10-05T02:05:49.165Z,1.83
2022-10-05T02:08:17.713Z,1.20
2022-10-05T02:10:47.308Z,1.20
2022-10-05T02:13:17.629Z,1.50
2022-10-05T02:15:46.046Z,1.52
2022-10-05T02:18:15.278Z,1.40
2022-10-05T02:20:42.836Z,1.50
2022-10-05T02:23:12.418Z,1.67
2022-10-05T02:25:40.848Z,1.45
2022-10-05T02:28:10.255Z,1.30
2022-10-05T02:30:42.432Z,1.35
2022-10-05T02:33:11.681Z,1.45
2022-10-05T02:35:39.323Z,1.20
2022-10-05T02:38:09.494Z,1.30
2022-10-05T02:40:42.305Z,0.90
2022-10-05T02:43:16.177Z,1.33
2022-10-05T02:45:47.667Z,1.30
2022-10-05T02:48:19.389Z,1.50
2022-10-05T02:50:52.552Z,1.88
2022-10-05T02:53:24.737Z,1.30
2022-10-05T02:55:57.672Z,1.10
2022-10-05T02:58:26.325Z,1.23
2022-10-05T03:00:58.169Z,1.35
2022-10-05T03:03:29.318Z,1.30
2022-10-05T03:06:02.107Z,1.63
2022-10-05T03:08:33.840Z,1.23
2022-10-05T03:11:05.745Z,1.20
2022-10-05T03:13:35.566Z,1.25
2022-10-05T03:16:13.877Z,1.30
2022-10-05T03:18:48.242Z,1.40
2022-10-05T03:21:29.837Z,1.27
2022-10-05T03:24:06.642Z,1.40
2022-10-05T03:26:38.122Z,0.95
2022-10-05T03:29:09.715Z,1.08
2022-10-05T03:31:40.450Z,1.30
2022-10-05T03:34:10.196Z,1.30
2022-10-05T03:36:40.085Z,1.30
2022-10-05T03:39:10.501Z,1.60
2022-10-05T03:41:41.766Z,1.27
2022-10-05T03:44:16.523Z,1.13
2022-10-05T03:46:57.431Z,1.15
2022-10-05T03:49:29.365Z,1.30
2022-10-05T03:52:00.123Z,1.33
2022-10-05T03:54:29.995Z,1.27
2022-10-05T03:56:58.521Z,1.30
2022-10-05T03:59:32.360Z,1.38
2022-10-05T04:02:02.352Z,1.30
2022-10-05T04:04:32.477Z,1.17
2022-10-05T04:07:00.032Z,1.50
2022-10-05T04:09:29.085Z,1.23
2022-10-05T04:12:04.217Z,1.10
2022-10-05T04:14:33.831Z,1.10
2022-10-05T04:17:04.152Z,1.38
2022-10-05T04:19:33.572Z,1.45
2022-10-05T04:22:05.761Z,1.42
2022-10-05T04:24:35.425Z,1.67
2022-10-05T04:27:05.617Z,3.30
2022-10-05T04:29:34.730Z,1.27
2022-10-05T04:32:10.168Z,3.95
2022-10-05T04:34:47.227Z,6.30
2022-10-05T04:37:18.471Z,1.60
2022-10-05T04:39:47.551Z,1.63
2022-10-05T04:42:18.142Z,4.53
2022-10-05T04:44:58.423Z,1.30
2022-10-05T04:47:36.788Z,2.20
2022-10-05T04:50:19.092Z,1.35
2022-10-05T04:52:51.888Z,1.50
2022-10-05T04:55:23.292Z,2.30
2022-10-05T04:57:51.598Z,0.88
2022-10-05T05:00:23.744Z,1.35
2022-10-05T05:03:02.636Z,1.30
2022-10-05T05:05:35.675Z,0.80
2022-10-05T05:08:10.280Z,1.20
2022-10-05T05:10:46.581Z,5.47
2022-10-05T05:13:25.919Z,1.30
2022-10-05T05:15:54.222Z,1.30
2022-10-05T05:18:35.701Z,1.58
2022-10-05T05:21:05.908Z,1.10
2022-10-05T05:23:38.615Z,2.13
2022-10-05T05:26:08.792Z,1.52
2022-10-05T05:28:40.129Z,1.20
2022-10-05T05:31:11.781Z,1.35
2022-10-05T05:33:45.294Z,1.73
2022-10-05T05:36:23.610Z,1.20
2022-10-05T05:38:55.741Z,1.35
2022-10-05T05:41:28.015Z,1.05
2022-10-05T05:44:06.046Z,1.00
2022-10-05T05:47:01.791Z,1.40
2022-10-05T05:49:31.261Z,0.95
2022-10-05T05:52:00.665Z,1.17
2022-10-05T05:54:30.677Z,1.83
2022-10-05T05:57:01.246Z,1.15
2022-10-05T05:59:30.577Z,1.30
2022-10-05T06:02:00.558Z,0.82
2022-10-05T06:04:31.937Z,1.23
2022-10-05T06:06:59.578Z,1.05
2022-10-05T06:09:27.868Z,1.50
2022-10-05T06:11:56.641Z,1.52
2022-10-05T06:14:26.136Z,1.65
2022-10-05T06:16:55.344Z,1.10
2022-10-05T06:19:23.733Z,1.20
2022-10-05T06:21:55.533Z,1.77
2022-10-05T06:24:24.597Z,1.10
2022-10-05T06:27:09.833Z,1.35
2022-10-05T06:29:43.293Z,2.90
2022-10-05T06:32:14.849Z,1.20
2022-10-05T06:34:53.164Z,1.58
2022-10-05T06:37:26.681Z,1.20
2022-10-05T06:40:02.871Z,1.60
2022-10-05T06:42:41.240Z,1.15
2022-10-05T06:45:12.969Z,1.20
2022-10-05T06:47:45.236Z,1.52
2022-10-05T06:50:16.233Z,1.20
2022-10-05T06:52:53.261Z,1.27
2022-10-05T06:55:24.012Z,0.98
2022-10-05T06:57:58.295Z,1.30
2022-10-05T07:00:26.653Z,1.10
2022-10-05T07:02:57.215Z,1.00
2022-10-05T07:05:53.867Z,1.27
2022-10-05T07:08:26.808Z,1.88
2022-10-05T07:11:03.916Z,0.80
2022-10-05T07:13:44.026Z,1.23
2022-10-05T07:16:13.650Z,1.70
2022-10-05T07:18:50.030Z,1.35
2022-10-05T07:21:21.400Z,1.38
2022-10-05T07:24:00.460Z,1.10
2022-10-05T07:26:32.470Z,1.10
2022-10-05T07:29:20.455Z,0.90
2022-10-05T07:31:50.850Z,1.08
2022-10-05T07:34:22.833Z,1.33
2022-10-05T07:37:18.084Z,1.10
2022-10-05T07:40:00.232Z,0.93
2022-10-05T07:42:42.441Z,1.25
2022-10-05T07:45:18.267Z,0.93
2022-10-05T07:47:48.453Z,1.20
2022-10-05T07:50:19.823Z,0.95
2022-10-05T07:52:49.405Z,2.25
2022-10-05T07:55:19.864Z,1.50
2022-10-05T07:57:50.884Z,0.90
2022-10-05T08:00:20.101Z,0.77
2022-10-05T08:02:49.611Z,1.10
2022-10-05T08:05:20.825Z,1.15
2022-10-05T08:07:48.953Z,1.17
2022-10-05T08:10:23.788Z,0.98
2022-10-05T08:13:03.753Z,0.95
2022-10-05T08:15:32.953Z,1.10
2022-10-05T08:18:01.549Z,1.60
2022-10-05T08:20:33.934Z,1.10
2022-10-05T08:23:03.425Z,1.00
2022-10-05T08:25:38.669Z,1.10
2022-10-05T08:28:09.427Z,1.00
2022-10-05T08:30:53.886Z,0.95
2022-10-05T08:33:21.493Z,0.90
2022-10-05T08:35:51.359Z,0.90
2022-10-05T08:38:20.194Z,0.85
2022-10-05T08:41:18.622Z,1.13
2022-10-05T08:44:03.283Z,2.63
2022-10-05T08:46:38.323Z,0.98
2022-10-05T08:49:14.009Z,0.85
2022-10-05T08:52:10.192Z,1.20
2022-10-05T08:54:44.583Z,1.08
2022-10-05T08:57:46.504Z,0.90
2022-10-05T09:00:15.117Z,0.88
2022-10-05T09:03:04.546Z,1.10
2022-10-05T09:06:21.491Z,1.58
2022-10-05T09:09:20.085Z,0.77
2022-10-05T09:11:55.907Z,1.10
2022-10-05T09:14:34.586Z,0.93
2022-10-05T09:17:14.181Z,1.05
2022-10-05T09:20:09.735Z,2.42
2022-10-05T09:22:40.271Z,0.85
2022-10-05T09:25:17.090Z,1.35
2022-10-05T09:27:45.633Z,1.08
2022-10-05T09:30:21.510Z,1.00
2022-10-05T09:33:09.593Z,1.20
2022-10-05T09:36:25.784Z,1.20
2022-10-05T09:39:27.081Z,0.80
2022-10-05T09:42:04.160Z,1.10
2022-10-05T09:44:51.258Z,1.05
2022-10-05T09:47:52.340Z,1.25
2022-10-05T09:50:50.813Z,1.10
2022-10-05T09:53:53.413Z,1.08
2022-10-05T09:59:27.244Z,4.88
2022-10-05T10:02:05.471Z,457.38
2022-10-05T10:04:52.802Z,495.08
2022-10-05T10:07:33.158Z,502.63
2022-10-05T10:10:34.205Z,428.90
2022-10-05T10:13:18.216Z,430.45
2022-10-05T10:15:57.619Z,434.30
2022-10-05T10:18:45.911Z,439.23
2022-10-05T10:21:37.948Z,393.17
2022-10-05T10:24:14.025Z,384.95
2022-10-05T10:26:54.439Z,376.23
2022-10-05T10:29:50.369Z,381.90
2022-10-05T10:32:37.350Z,359.75
2022-10-05T10:35:12.892Z,388.88
2022-10-05T10:38:28.563Z,357.17
2022-10-05T10:41:22.418Z,339.42
2022-10-05T10:44:07.025Z,369.05
2022-10-05T10:46:39.215Z,342.15
2022-10-05T10:49:17.006Z,346.00
2022-10-05T10:51:56.627Z,341.00
2022-10-05T10:54:35.104Z,331.58
2022-10-05T10:57:08.623Z,343.63
2022-10-05T11:00:15.451Z,328.27
2022-10-05T11:03:11.419Z,327.08
2022-10-05T11:05:54.267Z,319.10
2022-10-05T11:09:09.611Z,320.45
2022-10-05T11:12:15.492Z,310.45
2022-10-05T11:15:11.257Z,294.50
2022-10-05T11:17:59.129Z,299.40
2022-10-05T11:20:37.833Z,296.45
2022-10-05T11:23:17.725Z,300.17
2022-10-05T11:25:51.817Z,297.17
2022-10-05T11:28:36.104Z,301.33
2022-10-05T11:31:24.744Z,282.35
2022-10-05T11:34:12.496Z,284.90
2022-10-05T11:37:10.887Z,272.23
2022-10-05T11:39:44.091Z,281.85
2022-10-05T11:42:28.901Z,272.52
2022-10-05T11:45:22.668Z,270.17
2022-10-05T11:48:10.870Z,262.10
2022-10-05T11:50:40.689Z,273.52
2022-10-05T11:53:12.097Z,244.77
2022-10-05T11:55:41.103Z,256.38
2022-10-05T11:58:13.877Z,263.63
2022-10-05T12:00:43.080Z,251.25
2022-10-05T12:03:24.006Z,242.75
2022-10-05T12:06:02.233Z,248.73
2022-10-05T12:08:35.062Z,241.07
2022-10-05T12:11:12.005Z,248.27
2022-10-05T12:13:43.184Z,238.25
2022-10-05T12:16:13.822Z,222.63
2022-10-05T12:18:47.822Z,245.18
2022-10-05T12:21:19.707Z,240.60
2022-10-05T12:23:48.606Z,236.63
2022-10-05T12:26:17.349Z,245.52
2022-10-05T12:28:47.306Z,215.30
2022-10-05T12:31:21.553Z,231.00
2022-10-05T12:33:54.389Z,221.27
2022-10-05T12:36:26.354Z,224.05
2022-10-05T12:38:59.014Z,225.48
2022-10-05T12:41:28.525Z,206.43
2022-10-05T12:44:03.406Z,200.93
2022-10-05T12:46:35.079Z,210.15
2022-10-05T12:49:24.951Z,219.50
2022-10-05T12:51:56.173Z,213.60
2022-10-05T12:54:25.701Z,209.98
2022-10-05T12:56:55.697Z,209.38
2022-10-05T12:59:35.944Z,208.63
2022-10-05T13:02:06.135Z,213.93
2022-10-05T13:04:40.821Z,210.73
2022-10-05T13:07:34.434Z,202.65
2022-10-05T13:10:05.732Z,192.52
2022-10-05T13:12:42.312Z,189.60
2022-10-05T13:15:15.421Z,196.60
2022-10-05T13:17:45.423Z,193.95
2022-10-05T13:20:17.353Z,186.70
2022-10-05T13:22:44.945Z,198.52
2022-10-05T13:25:21.834Z,200.90
2022-10-05T13:27:58.430Z,184.88
2022-10-05T13:30:26.072Z,152.90
2022-10-05T13:32:57.055Z,162.52
2022-10-05T13:35:37.048Z,163.18
2022-10-05T13:38:08.923Z,160.55
2022-10-05T13:40:39.115Z,165.60
2022-10-05T13:43:08.444Z,168.60
2022-10-05T13:45:40.276Z,152.65
2022-10-05T13:48:14.928Z,169.27
2022-10-05T13:50:45.986Z,158.70
2022-10-05T13:53:17.950Z,162.70
2022-10-05T13:55:46.944Z,162.32
2022-10-05T13:58:20.164Z,157.55
2022-10-05T14:00:49.444Z,147.82
2022-10-05T14:03:27.883Z,155.90
2022-10-05T14:05:59.111Z,160.98
2022-10-05T14:08:28.250Z,137.23
2022-10-05T14:10:56.824Z,144.95
2022-10-05T14:13:28.699Z,152.32
2022-10-05T14:15:59.297Z,147.05
2022-10-05T14:18:27.698Z,152.30
2022-10-05T14:21:17.135Z,151.82
2022-10-05T14:23:44.950Z,136.70
2022-10-05T14:26:18.745Z,134.07
2022-10-05T14:28:57.923Z,135.48
2022-10-05T14:31:29.059Z,136.30
2022-10-05T14:33:56.633Z,137.85
2022-10-05T14:36:36.080Z,145.45
2022-10-05T14:39:05.137Z,135.95
2022-10-05T14:41:35.628Z,115.10
2022-10-05T14:44:05.199Z,136.75
2022-10-05T14:46:33.562Z,115.75
2022-10-05T14:49:13.960Z,123.18
2022-10-05T14:51:43.189Z,126.15
2022-10-05T14:54:23.417Z,118.13
2022-10-05T14:56:51.301Z,125.18
2022-10-05T14:59:27.810Z,123.68
2022-10-05T15:01:57.490Z,123.93
2022-10-05T15:04:31.882Z,116.82
2022-10-05T15:07:06.961Z,121.63
2022-10-05T15:09:47.319Z,116.75
2022-10-05T15:12:15.220Z,121.72
2022-10-05T15:14:44.429Z,123.78
2022-10-05T15:17:15.536Z,124.13
2022-10-05T15:19:46.668Z,114.22
2022-10-05T15:22:26.968Z,122.95
2022-10-05T15:25:01.572Z,115.05
2022-10-05T15:27:32.759Z,111.05
2022-10-05T15:30:04.616Z,111.25
2022-10-05T15:32:41.553Z,125.00
2022-10-05T15:35:48.042Z,108.00
2022-10-05T15:38:23.772Z,112.93
2022-10-05T15:40:59.501Z,114.63
2022-10-05T15:43:27.372Z,107.47
2022-10-05T15:45:58.378Z,114.18
2022-10-05T15:48:29.078Z,107.65
2022-10-05T15:51:01.339Z,117.63
2022-10-05T15:53:34.121Z,107.65
2022-10-05T15:56:03.650Z,109.25
2022-10-05T15:58:53.816Z,116.05
2022-10-05T16:01:22.462Z,111.78
2022-10-05T16:03:51.459Z,113.43
2022-10-05T16:06:43.268Z,102.53
2022-10-05T16:09:18.850Z,102.60
2022-10-05T16:11:59.632Z,98.68
2022-10-05T16:14:34.442Z,93.72
2022-10-05T16:17:13.571Z,73.03
2022-10-05T16:19:44.158Z,90.28
2022-10-05T16:22:16.737Z,77.72
2022-10-05T16:24:52.078Z,76.55
2022-10-05T16:27:22.030Z,77.45
2022-10-05T16:29:53.160Z,64.25
2022-10-05T16:32:22.604Z,74.18
2022-10-05T16:34:57.535Z,68.22
2022-10-05T16:37:29.367Z,66.30
2022-10-05T16:40:00.006Z,62.28
2022-10-05T16:42:35.716Z,67.07
2022-10-05T16:45:10.888Z,63.35
2022-10-05T16:47:43.946Z,59.22
2022-10-05T16:50:18.808Z,59.95
2022-10-05T16:52:47.755Z,61.90
2022-10-05T16:55:20.969Z,60.38
2022-10-05T16:57:51.521Z,58.35
2022-10-05T17:00:21.347Z,56.00
2022-10-05T17:03:05.124Z,52.30
2022-10-05T17:05:44.088Z,52.03
2022-10-05T17:08:21.475Z,54.20
2022-10-05T17:10:59.045Z,48.13
2022-10-05T17:13:43.391Z,55.70
2022-10-05T17:16:13.216Z,46.95
2022-10-05T17:18:55.076Z,47.72
2022-10-05T17:21:23.844Z,47.67
2022-10-05T17:23:55.022Z,49.65
2022-10-05T17:26:42.410Z,51.95
2022-10-05T17:29:10.720Z,45.20
2022-10-05T17:32:02.931Z,46.72
2022-10-05T17:34:31.068Z,55.47
2022-10-05T17:36:59.737Z,48.05
2022-10-05T17:39:46.428Z,57.17
2022-10-05T17:42:49.160Z,55.85
2022-10-05T17:45:52.465Z,48.55
2022-10-05T17:49:01.246Z,47.22
2022-10-05T17:52:15.567Z,50.53
2022-10-05T17:55:14.344Z,40.40
2022-10-05T17:57:41.915Z,46.22
2022-10-05T18:00:34.713Z,42.22
2022-10-05T18:03:02.299Z,41.97
2022-10-05T18:05:30.090Z,44.40
2022-10-05T18:08:21.203Z,35.63
2022-10-05T18:11:07.521Z,44.58
2022-10-05T18:13:35.708Z,37.65
2022-10-05T18:16:09.667Z,44.55
2022-10-05T18:18:55.792Z,41.63
2022-10-05T18:21:35.529Z,39.13
2022-10-05T18:24:29.556Z,40.22
2022-10-05T18:27:03.300Z,35.55
2022-10-05T18:30:08.900Z,42.67
2022-10-05T18:32:45.355Z,37.67
2022-10-05T18:35:14.555Z,32.67
2022-10-05T18:37:47.301Z,35.78
2022-10-05T18:40:23.890Z,39.33
2022-10-05T18:42:53.700Z,31.05
2022-10-05T18:45:23.611Z,34.92
2022-10-05T18:47:58.678Z,37.50
2022-10-05T18:50:28.049Z,37.42
2022-10-05T18:53:08.425Z,32.22
2022-10-05T18:55:37.340Z,33.50
2022-10-05T18:58:10.963Z,35.53
2022-10-05T19:00:46.501Z,30.58
2022-10-05T19:03:17.504Z,34.15
2022-10-05T19:05:49.009Z,34.03
2022-10-05T19:08:25.532Z,31.13
2022-10-05T19:10:56.032Z,34.67
2022-10-05T19:13:30.962Z,31.83
2022-10-05T19:16:04.800Z,38.25
2022-10-05T19:18:46.519Z,29.50
2022-10-05T19:21:21.650Z,32.45
2022-10-05T19:24:13.946Z,36.72
2022-10-05T19:26:51.701Z,30.23
2022-10-05T19:29:27.020Z,33.72
2022-10-05T19:31:56.463Z,30.50
2022-10-05T19:34:33.712Z,30.73
2022-10-05T19:37:04.077Z,32.55
2022-10-05T19:39:35.955Z,30.63
2022-10-05T19:42:12.575Z,26.25
2022-10-05T19:44:47.981Z,33.17
2022-10-05T19:47:18.583Z,27.75
2022-10-05T19:49:57.499Z,29.05
2022-10-05T19:52:28.293Z,28.38
2022-10-05T19:55:04.602Z,33.00
2022-10-05T19:57:32.574Z,30.25
2022-10-05T20:00:00.405Z,28.27
2022-10-05T20:02:28.230Z,29.92
2022-10-05T20:04:57.413Z,27.52
2022-10-05T20:07:24.973Z,25.77
2022-10-05T20:09:54.633Z,30.52
2022-10-05T20:12:22.886Z,29.50
2022-10-05T20:15:23.885Z,27.17
2022-10-05T20:18:23.574Z,26.05
2022-10-05T20:20:52.482Z,29.25
2022-10-05T20:23:23.954Z,31.17
2022-10-05T20:26:05.508Z,28.85
2022-10-05T20:28:33.379Z,26.73
2022-10-05T20:31:01.331Z,28.40
2022-10-05T20:33:28.976Z,24.33
2022-10-05T20:35:57.966Z,23.30
2022-10-05T20:38:25.958Z,29.95
2022-10-05T20:40:53.779Z,25.63
2022-10-05T20:43:21.292Z,27.90
2022-10-05T20:45:48.829Z,27.63
2022-10-05T20:48:17.400Z,29.05
2022-10-05T20:50:44.932Z,29.58
2022-10-05T20:53:14.097Z,29.08
2022-10-05T20:55:42.986Z,28.20
2022-10-05T20:58:11.060Z,27.40
2022-10-05T21:00:56.601Z,28.02
2022-10-05T21:03:24.293Z,25.15
2022-10-05T21:05:51.844Z,23.60
2022-10-05T21:08:20.708Z,26.17
2022-10-05T21:10:49.296Z,31.88
2022-10-05T21:13:17.552Z,27.13
2022-10-05T21:15:45.087Z,28.17
2022-10-05T21:18:12.636Z,27.38
2022-10-05T21:20:40.145Z,28.90
2022-10-05T21:23:07.672Z,28.25
2022-10-05T21:25:36.537Z,28.27
2022-10-05T21:28:04.918Z,24.52
2022-10-05T21:30:32.457Z,23.67
2022-10-05T21:32:59.996Z,24.27
2022-10-05T21:35:27.573Z,25.60
2022-10-05T21:37:55.120Z,23.38
2022-10-05T21:40:23.837Z,21.90
2022-10-05T21:42:52.709Z,23.77
2022-10-05T21:45:20.249Z,25.02
2022-10-05T21:47:47.807Z,23.77
2022-10-05T21:50:15.521Z,22.88
2022-10-05T21:52:43.052Z,20.60
2022-10-05T21:55:10.781Z,25.20
2022-10-05T21:57:38.315Z,25.13
2022-10-05T22:00:08.841Z,26.08
2022-10-05T22:02:36.427Z,25.77
2022-10-05T22:05:04.180Z,21.15
2022-10-05T22:07:31.941Z,24.45
2022-10-05T22:09:59.493Z,25.15
2022-10-05T22:12:28.073Z,22.50
2022-10-05T22:14:55.568Z,25.55
2022-10-05T22:17:27.099Z,24.27
2022-10-05T22:19:54.889Z,24.85
2022-10-05T22:22:22.405Z,24.90
2022-10-05T22:24:49.948Z,22.35
2022-10-05T22:27:17.513Z,22.80
2022-10-05T22:29:45.068Z,25.90
2022-10-05T22:32:12.881Z,23.13
2022-10-05T22:34:41.771Z,22.67
2022-10-05T22:37:12.873Z,21.35
2022-10-05T22:39:40.539Z,22.83
2022-10-05T22:42:08.360Z,19.10
2022-10-05T22:44:36.222Z,21.70
2022-10-05T22:47:04.005Z,23.00
2022-10-05T22:49:31.542Z,22.88
2022-10-05T22:52:00.423Z,22.27
2022-10-05T22:54:30.085Z,20.23
2022-10-05T22:56:59.294Z,24.40
2022-10-05T22:59:26.819Z,18.52
2022-10-05T23:01:54.556Z,18.67
2022-10-05T23:04:22.250Z,21.35
2022-10-05T23:06:49.763Z,21.83
2022-10-05T23:09:18.757Z,19.63
2022-10-05T23:11:51.789Z,18.15
2022-10-05T23:14:19.512Z,20.85
2022-10-05T23:16:47.450Z,20.90
2022-10-05T23:19:15.032Z,19.65
2022-10-05T23:21:42.613Z,19.08
2022-10-05T23:24:10.163Z,21.05
2022-10-05T23:26:39.182Z,20.05
2022-10-05T23:29:06.768Z,18.85
2022-10-05T23:31:36.438Z,20.95
2022-10-05T23:34:04.023Z,21.85
2022-10-05T23:36:32.373Z,20.92
2022-10-05T23:38:59.917Z,17.88
2022-10-05T23:41:27.470Z,22.67
2022-10-05T23:43:56.361Z,18.08
2022-10-05T23:46:24.038Z,20.02
2022-10-05T23:48:53.204Z,20.42
2022-10-05T23:51:20.765Z,22.13
2022-10-05T23:53:48.359Z,19.23
2022-10-05T23:56:15.932Z,21.38
2022-10-05T23:58:43.532Z,18.25
